sensor_id;sensor_type;location;lat;lon;timestamp;pressure;altitude;pressure_sealevel;temperature;humidity
31346;BME280;21711;49.708;18.568;2023-05-07T00:00:45;97532.81;;;12.30;100.00
31346;BME280;21711;49.708;18.568;2023-05-07T00:03:12;97530.63;;;12.43;100.00
31346;BME280;21711;49.708;18.568;2023-05-07T00:05:41;97534.00;;;12.14;100.00
31346;BME280;21711;49.708;18.568;2023-05-07T00:08:08;97531.09;;;12.10;100.00
31346;BME280;21711;49.708;18.568;2023-05-07T00:10:35;97527.72;;;12.39;100.00
31346;BME280;21711;49.708;18.568;2023-05-07T00:13:03;97525.13;;;12.29;100.00
31346;BME280;21711;49.708;18.568;2023-05-07T00:15:30;97527.34;;;12.16;100.00
31346;BME280;21711;49.708;18.568;2023-05-07T00:17:57;97533.38;;;12.27;100.00
31346;BME280;21711;49.708;18.568;2023-05-07T00:20:26;97532.59;;;12.27;100.00
31346;BME280;21711;49.708;18.568;2023-05-07T00:22:54;97523.97;;;12.10;100.00
31346;BME280;21711;49.708;18.568;2023-05-07T00:25:21;97536.16;;;12.46;100.00
31346;BME280;21711;49.708;18.568;2023-05-07T00:27:48;97530.00;;;12.51;100.00
31346;BME280;21711;49.708;18.568;2023-05-07T00:30:16;97520.16;;;12.57;100.00
31346;BME280;21711;49.708;18.568;2023-05-07T00:32:43;97518.25;;;12.62;100.00
31346;BME280;21711;49.708;18.568;2023-05-07T00:35:12;97521.72;;;12.58;100.00
31346;BME280;21711;49.708;18.568;2023-05-07T00:37:40;97526.19;;;12.33;100.00
31346;BME280;21711;49.708;18.568;2023-05-07T00:40:08;97529.91;;;12.32;100.00
31346;BME280;21711;49.708;18.568;2023-05-07T00:42:36;97525.50;;;12.17;100.00
31346;BME280;21711;49.708;18.568;2023-05-07T00:45:04;97529.44;;;12.19;100.00
31346;BME280;21711;49.708;18.568;2023-05-07T00:47:31;97530.03;;;12.11;100.00
31346;BME280;21711;49.708;18.568;2023-05-07T00:49:59;97531.88;;;12.16;100.00
31346;BME280;21711;49.708;18.568;2023-05-07T00:52:26;97539.03;;;12.15;100.00
31346;BME280;21711;49.708;18.568;2023-05-07T00:54:55;97542.41;;;12.26;100.00
31346;BME280;21711;49.708;18.568;2023-05-07T00:57:24;97536.88;;;12.22;100.00
31346;BME280;21711;49.708;18.568;2023-05-07T00:59:52;97538.94;;;12.31;100.00
31346;BME280;21711;49.708;18.568;2023-05-07T01:02:20;97529.84;;;12.37;100.00
31346;BME280;21711;49.708;18.568;2023-05-07T01:04:47;97533.31;;;12.32;100.00
31346;BME280;21711;49.708;18.568;2023-05-07T01:07:15;97534.47;;;12.21;100.00
31346;BME280;21711;49.708;18.568;2023-05-07T01:09:42;97538.44;;;12.23;100.00
31346;BME280;21711;49.708;18.568;2023-05-07T01:12:10;97531.25;;;12.29;100.00
31346;BME280;21711;49.708;18.568;2023-05-07T01:14:38;97529.41;;;12.25;100.00
31346;BME280;21711;49.708;18.568;2023-05-07T01:17:05;97540.28;;;12.23;100.00
31346;BME280;21711;49.708;18.568;2023-05-07T01:19:34;97533.38;;;12.27;100.00
31346;BME280;21711;49.708;18.568;2023-05-07T01:22:07;97541.94;;;12.14;100.00
31346;BME280;21711;49.708;18.568;2023-05-07T01:24:43;97536.94;;;12.07;100.00
31346;BME280;21711;49.708;18.568;2023-05-07T01:27:11;97531.94;;;12.05;100.00
31346;BME280;21711;49.708;18.568;2023-05-07T01:29:39;97532.97;;;12.09;100.00
31346;BME280;21711;49.708;18.568;2023-05-07T01:32:07;97531.38;;;12.08;100.00
31346;BME280;21711;49.708;18.568;2023-05-07T01:34:36;97534.03;;;12.03;100.00
31346;BME280;21711;49.708;18.568;2023-05-07T01:37:04;97538.78;;;12.12;100.00
31346;BME280;21711;49.708;18.568;2023-05-07T01:39:32;97539.09;;;12.05;100.00
31346;BME280;21711;49.708;18.568;2023-05-07T01:42:00;97535.34;;;12.11;100.00
31346;BME280;21711;49.708;18.568;2023-05-07T01:44:28;97535.09;;;12.07;100.00
31346;BME280;21711;49.708;18.568;2023-05-07T01:46:56;97531.41;;;11.98;100.00
31346;BME280;21711;49.708;18.568;2023-05-07T01:49:24;97543.63;;;11.94;100.00
31346;BME280;21711;49.708;18.568;2023-05-07T01:51:52;97537.28;;;11.90;100.00
31346;BME280;21711;49.708;18.568;2023-05-07T01:54:19;97537.91;;;11.71;100.00
31346;BME280;21711;49.708;18.568;2023-05-07T01:56:47;97541.59;;;11.75;100.00
31346;BME280;21711;49.708;18.568;2023-05-07T01:59:16;97531.44;;;11.93;100.00
31346;BME280;21711;49.708;18.568;2023-05-07T02:01:44;97542.56;;;12.00;100.00
31346;BME280;21711;49.708;18.568;2023-05-07T02:04:12;97540.13;;;12.04;100.00
31346;BME280;21711;49.708;18.568;2023-05-07T02:06:39;97547.28;;;12.08;100.00
31346;BME280;21711;49.708;18.568;2023-05-07T02:09:08;97537.97;;;12.11;100.00
31346;BME280;21711;49.708;18.568;2023-05-07T02:11:37;97538.81;;;12.06;100.00
31346;BME280;21711;49.708;18.568;2023-05-07T02:14:05;97543.06;;;12.02;100.00
31346;BME280;21711;49.708;18.568;2023-05-07T02:16:32;97538.38;;;11.89;100.00
31346;BME280;21711;49.708;18.568;2023-05-07T02:19:00;97531.78;;;11.81;100.00
31346;BME280;21711;49.708;18.568;2023-05-07T02:21:27;97536.31;;;11.75;100.00
31346;BME280;21711;49.708;18.568;2023-05-07T02:23:57;97533.19;;;11.68;100.00
31346;BME280;21711;49.708;18.568;2023-05-07T02:26:24;97535.28;;;11.66;100.00
31346;BME280;21711;49.708;18.568;2023-05-07T02:28:53;97531.09;;;11.60;100.00
31346;BME280;21711;49.708;18.568;2023-05-07T02:31:20;97529.56;;;11.48;100.00
31346;BME280;21711;49.708;18.568;2023-05-07T02:33:48;97527.31;;;11.76;100.00
31346;BME280;21711;49.708;18.568;2023-05-07T02:36:15;97527.03;;;11.78;100.00
31346;BME280;21711;49.708;18.568;2023-05-07T02:38:54;97539.03;;;11.65;100.00
31346;BME280;21711;49.708;18.568;2023-05-07T02:41:21;97536.88;;;11.72;100.00
31346;BME280;21711;49.708;18.568;2023-05-07T02:43:49;97537.91;;;11.76;100.00
31346;BME280;21711;49.708;18.568;2023-05-07T02:46:16;97533.53;;;11.51;100.00
31346;BME280;21711;49.708;18.568;2023-05-07T02:48:48;97527.16;;;11.52;100.00
31346;BME280;21711;49.708;18.568;2023-05-07T02:51:21;97539.38;;;11.48;100.00
31346;BME280;21711;49.708;18.568;2023-05-07T02:53:52;97540.19;;;11.38;100.00
31346;BME280;21711;49.708;18.568;2023-05-07T02:56:20;97533.31;;;11.37;100.00
31346;BME280;21711;49.708;18.568;2023-05-07T02:58:47;97533.03;;;11.43;100.00
31346;BME280;21711;49.708;18.568;2023-05-07T03:01:16;97531.22;;;11.34;100.00
31346;BME280;21711;49.708;18.568;2023-05-07T03:04:10;97531.22;;;11.23;100.00
31346;BME280;21711;49.708;18.568;2023-05-07T03:06:37;97533.91;;;11.13;100.00
31346;BME280;21711;49.708;18.568;2023-05-07T03:09:05;97528.66;;;11.02;100.00
31346;BME280;21711;49.708;18.568;2023-05-07T03:11:32;97532.41;;;10.91;100.00
31346;BME280;21711;49.708;18.568;2023-05-07T03:13:59;97534.25;;;10.85;100.00
31346;BME280;21711;49.708;18.568;2023-05-07T03:16:27;97530.78;;;11.00;100.00
31346;BME280;21711;49.708;18.568;2023-05-07T03:18:55;97540.78;;;11.19;100.00
31346;BME280;21711;49.708;18.568;2023-05-07T03:21:22;97544.69;;;11.37;100.00
31346;BME280;21711;49.708;18.568;2023-05-07T03:23:49;97548.00;;;10.98;100.00
31346;BME280;21711;49.708;18.568;2023-05-07T03:26:17;97544.78;;;11.11;100.00
31346;BME280;21711;49.708;18.568;2023-05-07T03:28:44;97556.09;;;11.27;100.00
31346;BME280;21711;49.708;18.568;2023-05-07T03:31:14;97561.97;;;11.09;100.00
31346;BME280;21711;49.708;18.568;2023-05-07T03:33:57;97558.28;;;11.10;100.00
31346;BME280;21711;49.708;18.568;2023-05-07T03:36:25;97558.53;;;11.13;100.00
31346;BME280;21711;49.708;18.568;2023-05-07T03:38:56;97562.75;;;11.14;100.00
31346;BME280;21711;49.708;18.568;2023-05-07T03:41:26;97560.38;;;11.13;100.00
31346;BME280;21711;49.708;18.568;2023-05-07T03:43:54;97570.72;;;11.09;100.00
31346;BME280;21711;49.708;18.568;2023-05-07T03:46:21;97559.34;;;10.98;100.00
31346;BME280;21711;49.708;18.568;2023-05-07T03:48:48;97560.69;;;10.96;100.00
31346;BME280;21711;49.708;18.568;2023-05-07T03:51:16;97568.63;;;10.90;100.00
31346;BME280;21711;49.708;18.568;2023-05-07T03:53:44;97574.44;;;11.08;100.00
31346;BME280;21711;49.708;18.568;2023-05-07T03:56:12;97568.34;;;11.08;100.00
31346;BME280;21711;49.708;18.568;2023-05-07T03:58:40;97566.72;;;11.22;100.00
31346;BME280;21711;49.708;18.568;2023-05-07T04:01:10;97574.16;;;10.99;100.00
31346;BME280;21711;49.708;18.568;2023-05-07T04:03:38;97580.25;;;11.10;100.00
31346;BME280;21711;49.708;18.568;2023-05-07T04:06:06;97580.00;;;10.96;100.00
31346;BME280;21711;49.708;18.568;2023-05-07T04:08:35;97579.19;;;11.06;100.00
31346;BME280;21711;49.708;18.568;2023-05-07T04:11:04;97585.56;;;11.00;100.00
31346;BME280;21711;49.708;18.568;2023-05-07T04:13:34;97584.75;;;10.94;100.00
31346;BME280;21711;49.708;18.568;2023-05-07T04:16:06;97597.97;;;11.20;100.00
31346;BME280;21711;49.708;18.568;2023-05-07T04:18:35;97594.81;;;11.08;100.00
31346;BME280;21711;49.708;18.568;2023-05-07T04:21:04;97599.28;;;11.07;100.00
31346;BME280;21711;49.708;18.568;2023-05-07T04:23:33;97599.31;;;11.02;100.00
31346;BME280;21711;49.708;18.568;2023-05-07T04:26:03;97604.34;;;11.03;100.00
31346;BME280;21711;49.708;18.568;2023-05-07T04:28:40;97606.19;;;11.13;100.00
31346;BME280;21711;49.708;18.568;2023-05-07T04:31:08;97602.50;;;11.04;100.00
31346;BME280;21711;49.708;18.568;2023-05-07T04:33:37;97612.28;;;10.83;100.00
31346;BME280;21711;49.708;18.568;2023-05-07T04:36:07;97614.41;;;11.01;100.00
31346;BME280;21711;49.708;18.568;2023-05-07T04:38:41;97612.53;;;11.02;100.00
31346;BME280;21711;49.708;18.568;2023-05-07T04:41:12;97621.25;;;11.18;100.00
31346;BME280;21711;49.708;18.568;2023-05-07T04:43:40;97624.16;;;11.16;100.00
31346;BME280;21711;49.708;18.568;2023-05-07T04:46:10;97625.75;;;11.28;100.00
31346;BME280;21711;49.708;18.568;2023-05-07T04:48:38;97632.09;;;11.32;100.00
31346;BME280;21711;49.708;18.568;2023-05-07T04:51:06;97635.50;;;11.48;100.00
31346;BME280;21711;49.708;18.568;2023-05-07T04:53:33;97634.97;;;11.46;100.00
31346;BME280;21711;49.708;18.568;2023-05-07T04:56:01;97636.50;;;11.68;100.00
31346;BME280;21711;49.708;18.568;2023-05-07T04:58:38;97644.47;;;11.52;100.00
31346;BME280;21711;49.708;18.568;2023-05-07T05:01:06;97644.13;;;11.80;100.00
31346;BME280;21711;49.708;18.568;2023-05-07T05:03:33;97645.75;;;11.76;100.00
31346;BME280;21711;49.708;18.568;2023-05-07T05:06:01;97643.88;;;11.81;100.00
31346;BME280;21711;49.708;18.568;2023-05-07T05:08:32;97643.31;;;11.84;100.00
31346;BME280;21711;49.708;18.568;2023-05-07T05:11:02;97648.06;;;11.88;100.00
31346;BME280;21711;49.708;18.568;2023-05-07T05:13:32;97644.06;;;11.95;100.00
31346;BME280;21711;49.708;18.568;2023-05-07T05:16:03;97645.91;;;12.00;100.00
31346;BME280;21711;49.708;18.568;2023-05-07T05:18:32;97648.72;;;12.25;100.00
31346;BME280;21711;49.708;18.568;2023-05-07T05:21:00;97656.94;;;12.23;100.00
31346;BME280;21711;49.708;18.568;2023-05-07T05:23:28;97652.00;;;12.01;100.00
31346;BME280;21711;49.708;18.568;2023-05-07T05:25:57;97649.34;;;12.01;100.00
31346;BME280;21711;49.708;18.568;2023-05-07T05:28:27;97661.78;;;12.10;100.00
31346;BME280;21711;49.708;18.568;2023-05-07T05:30:55;97655.72;;;12.00;100.00
31346;BME280;21711;49.708;18.568;2023-05-07T05:33:25;97656.03;;;11.88;100.00
31346;BME280;21711;49.708;18.568;2023-05-07T05:35:54;97656.56;;;11.84;100.00
31346;BME280;21711;49.708;18.568;2023-05-07T05:38:21;97657.41;;;11.75;100.00
31346;BME280;21711;49.708;18.568;2023-05-07T05:40:49;97661.63;;;11.76;100.00
31346;BME280;21711;49.708;18.568;2023-05-07T05:43:17;97668.00;;;11.75;100.00
31346;BME280;21711;49.708;18.568;2023-05-07T05:45:44;97663.56;;;11.28;100.00
31346;BME280;21711;49.708;18.568;2023-05-07T05:48:12;97666.78;;;11.25;100.00
31346;BME280;21711;49.708;18.568;2023-05-07T05:50:41;97665.69;;;11.37;100.00
31346;BME280;21711;49.708;18.568;2023-05-07T05:53:09;97662.03;;;11.17;100.00
31346;BME280;21711;49.708;18.568;2023-05-07T05:55:38;97662.28;;;11.21;100.00
31346;BME280;21711;49.708;18.568;2023-05-07T05:58:05;97664.13;;;11.30;100.00
31346;BME280;21711;49.708;18.568;2023-05-07T06:00:36;97673.31;;;11.69;100.00
31346;BME280;21711;49.708;18.568;2023-05-07T06:03:05;97671.09;;;11.97;100.00
31346;BME280;21711;49.708;18.568;2023-05-07T06:05:34;97674.91;;;11.65;100.00
31346;BME280;21711;49.708;18.568;2023-05-07T06:08:02;97670.94;;;11.68;100.00
31346;BME280;21711;49.708;18.568;2023-05-07T06:10:32;97670.91;;;11.78;100.00
31346;BME280;21711;49.708;18.568;2023-05-07T06:13:00;97671.81;;;11.32;100.00
31346;BME280;21711;49.708;18.568;2023-05-07T06:15:28;97684.22;;;11.42;100.00
31346;BME280;21711;49.708;18.568;2023-05-07T06:18:02;97678.91;;;11.42;100.00
31346;BME280;21711;49.708;18.568;2023-05-07T06:20:29;97679.19;;;11.40;100.00
31346;BME280;21711;49.708;18.568;2023-05-07T06:22:58;97678.38;;;11.55;100.00
31346;BME280;21711;49.708;18.568;2023-05-07T06:25:25;97685.81;;;11.53;100.00
31346;BME280;21711;49.708;18.568;2023-05-07T06:27:53;97683.91;;;11.59;100.00
31346;BME280;21711;49.708;18.568;2023-05-07T06:30:20;97683.69;;;11.50;100.00
31346;BME280;21711;49.708;18.568;2023-05-07T06:32:47;97679.19;;;11.35;100.00
31346;BME280;21711;49.708;18.568;2023-05-07T06:35:15;97677.88;;;11.48;100.00
31346;BME280;21711;49.708;18.568;2023-05-07T06:37:43;97681.03;;;11.55;100.00
31346;BME280;21711;49.708;18.568;2023-05-07T06:40:15;97688.97;;;11.55;100.00
31346;BME280;21711;49.708;18.568;2023-05-07T06:42:45;97690.03;;;11.54;100.00
31346;BME280;21711;49.708;18.568;2023-05-07T06:45:33;97687.66;;;11.53;100.00
31346;BME280;21711;49.708;18.568;2023-05-07T06:48:00;97691.81;;;11.80;100.00
31346;BME280;21711;49.708;18.568;2023-05-07T06:50:31;97696.88;;;11.66;100.00
31346;BME280;21711;49.708;18.568;2023-05-07T06:52:59;97700.34;;;11.66;100.00
31346;BME280;21711;49.708;18.568;2023-05-07T06:55:26;97699.28;;;11.67;100.00
31346;BME280;21711;49.708;18.568;2023-05-07T06:57:54;97700.59;;;11.65;100.00
31346;BME280;21711;49.708;18.568;2023-05-07T07:00:23;97702.22;;;11.50;100.00
31346;BME280;21711;49.708;18.568;2023-05-07T07:02:55;97701.69;;;11.53;100.00
31346;BME280;21711;49.708;18.568;2023-05-07T07:05:26;97701.13;;;11.56;100.00
31346;BME280;21711;49.708;18.568;2023-05-07T07:07:54;97707.00;;;11.48;100.00
31346;BME280;21711;49.708;18.568;2023-05-07T07:10:23;97708.88;;;11.37;100.00
31346;BME280;21711;49.708;18.568;2023-05-07T07:12:51;97715.50;;;11.35;100.00
31346;BME280;21711;49.708;18.568;2023-05-07T07:15:20;97720.25;;;11.22;100.00
31346;BME280;21711;49.708;18.568;2023-05-07T07:17:49;97722.09;;;11.16;100.00
31346;BME280;21711;49.708;18.568;2023-05-07T07:20:17;97714.44;;;11.20;100.00
31346;BME280;21711;49.708;18.568;2023-05-07T07:22:45;97719.75;;;11.15;100.00
31346;BME280;21711;49.708;18.568;2023-05-07T07:25:14;97724.22;;;11.25;100.00
31346;BME280;21711;49.708;18.568;2023-05-07T07:27:41;97720.25;;;11.01;100.00
31346;BME280;21711;49.708;18.568;2023-05-07T07:30:10;97735.31;;;11.06;100.00
31346;BME280;21711;49.708;18.568;2023-05-07T07:32:40;97735.31;;;11.11;100.00
31346;BME280;21711;49.708;18.568;2023-05-07T07:35:08;97731.91;;;11.00;100.00
31346;BME280;21711;49.708;18.568;2023-05-07T07:37:37;97731.09;;;11.00;100.00
31346;BME280;21711;49.708;18.568;2023-05-07T07:40:05;97731.09;;;11.10;100.00
31346;BME280;21711;49.708;18.568;2023-05-07T07:42:33;97728.19;;;11.01;100.00
31346;BME280;21711;49.708;18.568;2023-05-07T07:45:02;97735.06;;;11.18;100.00
31346;BME280;21711;49.708;18.568;2023-05-07T07:47:33;97740.38;;;11.34;100.00
31346;BME280;21711;49.708;18.568;2023-05-07T07:50:00;97739.84;;;11.21;100.00
31346;BME280;21711;49.708;18.568;2023-05-07T07:52:28;97738.53;;;11.24;100.00
31346;BME280;21711;49.708;18.568;2023-05-07T07:54:55;97737.72;;;11.28;100.00
31346;BME280;21711;49.708;18.568;2023-05-07T07:57:23;97743.28;;;11.22;100.00
31346;BME280;21711;49.708;18.568;2023-05-07T07:59:51;97747.78;;;11.31;100.00
31346;BME280;21711;49.708;18.568;2023-05-07T08:02:19;97747.00;;;11.36;100.00
31346;BME280;21711;49.708;18.568;2023-05-07T08:04:48;97748.31;;;11.39;100.00
31346;BME280;21711;49.708;18.568;2023-05-07T08:07:16;97753.88;;;11.48;100.00
31346;BME280;21711;49.708;18.568;2023-05-07T08:09:48;97752.81;;;11.33;100.00
31346;BME280;21711;49.708;18.568;2023-05-07T08:12:19;97760.47;;;11.50;100.00
31346;BME280;21711;49.708;18.568;2023-05-07T08:14:48;97765.75;;;11.61;100.00
31346;BME280;21711;49.708;18.568;2023-05-07T08:17:15;97764.44;;;11.58;100.00
31346;BME280;21711;49.708;18.568;2023-05-07T08:19:44;97760.75;;;11.38;100.00
31346;BME280;21711;49.708;18.568;2023-05-07T08:22:13;97765.25;;;11.48;100.00
31346;BME280;21711;49.708;18.568;2023-05-07T08:24:41;97757.84;;;11.35;100.00
31346;BME280;21711;49.708;18.568;2023-05-07T08:27:09;97771.59;;;11.37;100.00
31346;BME280;21711;49.708;18.568;2023-05-07T08:29:37;97773.19;;;11.38;100.00
31346;BME280;21711;49.708;18.568;2023-05-07T08:32:05;97770.53;;;11.32;100.00
31346;BME280;21711;49.708;18.568;2023-05-07T08:34:32;97776.09;;;11.21;100.00
31346;BME280;21711;49.708;18.568;2023-05-07T08:37:02;97778.75;;;11.21;100.00
31346;BME280;21711;49.708;18.568;2023-05-07T08:39:31;97784.03;;;11.15;100.00
31346;BME280;21711;49.708;18.568;2023-05-07T08:42:00;97782.13;;;10.90;100.00
31346;BME280;21711;49.708;18.568;2023-05-07T08:44:34;97780.84;;;10.98;100.00
31346;BME280;21711;49.708;18.568;2023-05-07T08:47:07;97795.44;;;11.16;100.00
31346;BME280;21711;49.708;18.568;2023-05-07T08:49:36;97785.66;;;11.22;100.00
31346;BME280;21711;49.708;18.568;2023-05-07T08:52:06;97797.00;;;10.96;100.00
31346;BME280;21711;49.708;18.568;2023-05-07T08:54:37;97798.59;;;11.13;100.00
31346;BME280;21711;49.708;18.568;2023-05-07T08:57:08;97797.97;;;10.74;100.00
31346;BME280;21711;49.708;18.568;2023-05-07T08:59:35;97804.09;;;10.85;100.00
31346;BME280;21711;49.708;18.568;2023-05-07T09:02:06;97808.06;;;10.77;100.00
31346;BME280;21711;49.708;18.568;2023-05-07T09:04:36;97810.63;;;10.62;100.00
31346;BME280;21711;49.708;18.568;2023-05-07T09:07:04;97804.06;;;10.64;100.00
31346;BME280;21711;49.708;18.568;2023-05-07T09:09:37;97807.22;;;10.67;100.00
31346;BME280;21711;49.708;18.568;2023-05-07T09:12:06;97817.31;;;10.80;100.00
31346;BME280;21711;49.708;18.568;2023-05-07T09:14:35;97813.34;;;10.72;100.00
31346;BME280;21711;49.708;18.568;2023-05-07T09:17:04;97819.47;;;10.88;100.00
31346;BME280;21711;49.708;18.568;2023-05-07T09:19:31;97813.81;;;10.64;100.00
31346;BME280;21711;49.708;18.568;2023-05-07T09:22:03;97825.00;;;10.76;100.00
31346;BME280;21711;49.708;18.568;2023-05-07T09:24:40;97828.16;;;10.73;100.00
31346;BME280;21711;49.708;18.568;2023-05-07T09:27:10;97827.03;;;10.59;100.00
31346;BME280;21711;49.708;18.568;2023-05-07T09:29:44;97829.47;;;10.76;100.00
31346;BME280;21711;49.708;18.568;2023-05-07T09:32:15;97832.69;;;10.88;100.00
31346;BME280;21711;49.708;18.568;2023-05-07T09:34:43;97830.22;;;10.71;100.00
31346;BME280;21711;49.708;18.568;2023-05-07T09:37:13;97833.38;;;10.58;100.00
31346;BME280;21711;49.708;18.568;2023-05-07T09:39:44;97834.97;;;10.59;100.00
31346;BME280;21711;49.708;18.568;2023-05-07T09:42:14;97832.00;;;10.50;100.00
31346;BME280;21711;49.708;18.568;2023-05-07T09:44:44;97845.50;;;10.48;100.00
31346;BME280;21711;49.708;18.568;2023-05-07T09:47:19;97841.34;;;10.68;100.00
31346;BME280;21711;49.708;18.568;2023-05-07T09:49:50;97839.81;;;10.77;100.00
31346;BME280;21711;49.708;18.568;2023-05-07T09:52:21;97838.91;;;10.51;100.00
31346;BME280;21711;49.708;18.568;2023-05-07T09:54:52;97844.50;;;10.60;100.00
31346;BME280;21711;49.708;18.568;2023-05-07T09:57:23;97855.69;;;10.34;100.00
31346;BME280;21711;49.708;18.568;2023-05-07T09:59:56;97854.75;;;10.46;100.00
31346;BME280;21711;49.708;18.568;2023-05-07T10:02:29;97855.72;;;10.39;100.00
31346;BME280;21711;49.708;18.568;2023-05-07T10:04:58;97853.97;;;10.50;100.00
31346;BME280;21711;49.708;18.568;2023-05-07T10:07:31;97861.53;;;10.36;100.00
31346;BME280;21711;49.708;18.568;2023-05-07T10:10:05;97854.53;;;10.15;100.00
31346;BME280;21711;49.708;18.568;2023-05-07T10:12:38;97858.97;;;10.47;100.00
31346;BME280;21711;49.708;18.568;2023-05-07T10:15:13;97867.72;;;10.52;100.00
31346;BME280;21711;49.708;18.568;2023-05-07T10:17:46;97870.59;;;10.08;100.00
31346;BME280;21711;49.708;18.568;2023-05-07T10:20:15;97873.53;;;10.11;100.00
31346;BME280;21711;49.708;18.568;2023-05-07T10:22:48;97863.81;;;9.79;100.00
31346;BME280;21711;49.708;18.568;2023-05-07T10:25:32;97863.25;;;10.58;100.00
31346;BME280;21711;49.708;18.568;2023-05-07T10:28:08;97868.72;;;11.10;100.00
31346;BME280;21711;49.708;18.568;2023-05-07T10:33:55;97868.66;;;10.84;100.00
31346;BME280;21711;49.708;18.568;2023-05-07T10:36:25;97871.94;;;11.12;100.00
31346;BME280;21711;49.708;18.568;2023-05-07T10:38:53;97872.66;;;10.92;100.00
31346;BME280;21711;49.708;18.568;2023-05-07T10:41:22;97875.03;;;10.94;100.00
31346;BME280;21711;49.708;18.568;2023-05-07T10:43:50;97869.22;;;11.02;100.00
31346;BME280;21711;49.708;18.568;2023-05-07T10:46:23;97877.16;;;11.02;100.00
31346;BME280;21711;49.708;18.568;2023-05-07T10:49:11;97878.19;;;10.85;100.00
31346;BME280;21711;49.708;18.568;2023-05-07T10:52:18;97874.44;;;10.71;100.00
31346;BME280;21711;49.708;18.568;2023-05-07T10:58:29;97880.72;;;10.59;100.00
31346;BME280;21711;49.708;18.568;2023-05-07T11:01:54;97882.84;;;10.62;100.00
31346;BME280;21711;49.708;18.568;2023-05-07T11:05:24;97882.72;;;10.42;100.00
31346;BME280;21711;49.708;18.568;2023-05-07T11:08:08;97885.44;;;10.52;100.00
31346;BME280;21711;49.708;18.568;2023-05-07T11:10:54;97889.00;;;10.35;100.00
31346;BME280;21711;49.708;18.568;2023-05-07T11:13:48;97886.00;;;10.59;100.00
31346;BME280;21711;49.708;18.568;2023-05-07T11:16:43;97891.38;;;10.32;100.00
31346;BME280;21711;49.708;18.568;2023-05-07T11:19:54;97887.03;;;10.10;100.00
31346;BME280;21711;49.708;18.568;2023-05-07T11:22:37;97885.78;;;10.23;100.00
31346;BME280;21711;49.708;18.568;2023-05-07T11:25:18;97894.84;;;10.37;100.00
31346;BME280;21711;49.708;18.568;2023-05-07T11:27:52;97898.44;;;10.21;100.00
31346;BME280;21711;49.708;18.568;2023-05-07T11:30:20;97903.44;;;10.55;100.00
31346;BME280;21711;49.708;18.568;2023-05-07T11:32:48;97901.94;;;10.70;97.92
31346;BME280;21711;49.708;18.568;2023-05-07T11:35:17;97903.47;;;10.60;98.92
31346;BME280;21711;49.708;18.568;2023-05-07T11:37:48;97913.25;;;10.60;98.37
31346;BME280;21711;49.708;18.568;2023-05-07T11:40:16;97898.97;;;10.61;99.01
31346;BME280;21711;49.708;18.568;2023-05-07T11:42:44;97905.00;;;10.46;98.87
31346;BME280;21711;49.708;18.568;2023-05-07T11:45:12;97909.41;;;10.40;100.00
31346;BME280;21711;49.708;18.568;2023-05-07T11:47:49;97909.91;;;10.37;100.00
31346;BME280;21711;49.708;18.568;2023-05-07T11:50:17;97910.59;;;10.60;99.11
31346;BME280;21711;49.708;18.568;2023-05-07T11:52:51;97902.25;;;10.40;100.00
31346;BME280;21711;49.708;18.568;2023-05-07T11:55:19;97919.53;;;10.48;99.49
31346;BME280;21711;49.708;18.568;2023-05-07T11:57:47;97907.16;;;10.59;99.53
31346;BME280;21711;49.708;18.568;2023-05-07T12:00:16;97915.44;;;10.73;98.93
31346;BME280;21711;49.708;18.568;2023-05-07T12:02:45;97925.81;;;10.85;99.88
31346;BME280;21711;49.708;18.568;2023-05-07T12:05:13;97924.03;;;10.48;100.00
31346;BME280;21711;49.708;18.568;2023-05-07T12:07:41;97924.78;;;10.43;98.44
31346;BME280;21711;49.708;18.568;2023-05-07T12:10:09;97926.72;;;10.20;100.00
31346;BME280;21711;49.708;18.568;2023-05-07T12:12:45;97933.81;;;10.52;100.00
31346;BME280;21711;49.708;18.568;2023-05-07T12:15:16;97937.03;;;10.55;99.75
31346;BME280;21711;49.708;18.568;2023-05-07T12:17:44;97925.19;;;10.68;97.32
31346;BME280;21711;49.708;18.568;2023-05-07T12:20:12;97934.97;;;10.29;98.35
31346;BME280;21711;49.708;18.568;2023-05-07T12:22:40;97928.81;;;10.18;98.98
31346;BME280;21711;49.708;18.568;2023-05-07T12:25:08;97928.41;;;10.37;100.00
31346;BME280;21711;49.708;18.568;2023-05-07T12:27:37;97931.44;;;10.46;100.00
31346;BME280;21711;49.708;18.568;2023-05-07T12:30:09;97930.69;;;10.61;99.76
31346;BME280;21711;49.708;18.568;2023-05-07T12:32:37;97930.91;;;10.11;100.00
31346;BME280;21711;49.708;18.568;2023-05-07T12:35:06;97933.22;;;10.40;100.00
31346;BME280;21711;49.708;18.568;2023-05-07T12:37:35;97939.63;;;10.49;98.61
31346;BME280;21711;49.708;18.568;2023-05-07T12:40:10;97947.13;;;10.63;100.00
31346;BME280;21711;49.708;18.568;2023-05-07T12:42:40;97943.66;;;10.57;98.59
31346;BME280;21711;49.708;18.568;2023-05-07T12:45:10;97934.66;;;10.58;98.11
31346;BME280;21711;49.708;18.568;2023-05-07T12:47:38;97938.03;;;10.97;96.46
31346;BME280;21711;49.708;18.568;2023-05-07T12:50:07;97940.06;;;10.79;95.19
31346;BME280;21711;49.708;18.568;2023-05-07T12:52:34;97937.13;;;10.75;95.49
31346;BME280;21711;49.708;18.568;2023-05-07T12:55:07;97937.09;;;10.27;97.03
31346;BME280;21711;49.708;18.568;2023-05-07T12:57:49;97946.38;;;10.30;97.24
31346;BME280;21711;49.708;18.568;2023-05-07T13:00:31;97942.94;;;10.34;98.59
31346;BME280;21711;49.708;18.568;2023-05-07T13:02:59;97944.13;;;10.49;99.77